Terminal Aerodrome Forecast
Issued by NWS

Home | Current Version | Previous Version | Text Only | Print | Product List | Glossary On
Versions: 1 2 3 4 5 6 7 8 9 10 11 12 13 14 15 16 17 18
770
FTUS45 KRIW 250531
TAFCPR
TAF
KCPR 250531Z 2506/2606 22012KT P6SM VCSH SCT030 BKN050
      TEMPO 2506/2508 -SHRA BKN030
     FM250800 24014G22KT P6SM VCSH SCT035 BKN060
     FM251500 01015G25KT 3SM -SNRA SCT009 BKN013
     FM252000 02011G19KT 6SM -RASN SCT014 BKN023
     FM260100 36009KT P6SM VCSH SCT015 BKN030=

USA.gov is the U.S. government's official web portal to all federal, state and local government web resources and services.